Terminal Aerodrome Forecast
Issued by NWS

Home | Current Version | Previous Version | Text Only | Print | Product List | Glossary On
Versions: 1 2 3 4 5 6 7 8 9 10 11 12 13 14 15 16 17 18 19 20 21 22 23 24 25 26 27 28 29 30 31 32 33 34 35
000
FTUS43 KDLH 142300 AAA
TAFHYR
TAF AMD
KHYR 142350Z 1500/1524 00000KT 3/4SM BR OVC004
     FM150200 16003KT 1/2SM -DZ FG VV002
     FM151000 VRB02KT 1SM -RA BR OVC004=

USA.gov is the U.S. government's official web portal to all federal, state and local government web resources and services.